ワシントン/ダレス の空港の天気 - METARとTAF

ワシントン・ダレス国際空港 ( KIAD / IAD ) - アメリカ バージニア州ダレス
飛行場実況気象(Metar)
観測時間05/26 18:52 EDT (05/26 22:52 UTC)
風向・風速南南東 3m/s
視程10km以上
天気現象
全天の8割程度の雲 雲底高度 460m
全天を覆う雲 雲底高度 670m
気温21.1℃
湿度81%
気圧1019hPa
METARKIAD 262252Z 16006KT 10SM BKN015 OVC022 21/18 A3010 RMK AO2 SLP190 T02110178
過去の天気等 Google飛行場航空写真 Wunderground天気予報

過去48時間のMETAR

飛行場予報(TAF)
発表時間: 5/26 17:06 EDT (5/26 21:06 UTC)
予報対象時間: 26日17時 EDT ~ 27日20時 EDT
風向・風速南南東 4m/s
視程10km以上
全天を覆う雲 雲底高度 400m
26日20時 EDT から
風向・風速南東 3m/s
視程10km以上
全天の4割程度の雲 雲底高度 240m
全天の8割程度の雲 雲底高度 460m
26日23時 EDT から
風向・風速南南東 3m/s
視程10km以上
天気現象もや
全天を覆う雲 雲底高度 240m
27日6時 EDT から
風向・風速南南東 4m/s
視程8050m
天気現象もや
全天を覆う雲 雲底高度 120m
27日11時 EDT から
風向・風速南 5m/s
視程6440m
天気現象弱いしゅう雨 もや
全天を覆う雲 雲底高度 300m
27日13時 EDT から
風向・風速南 6m/s 瞬間風速 10m/s
視程10km以上
天気現象しゅう雨 周辺で雷
全天を覆う積乱雲 雲底高度 760m
27日18時 EDT から
風向・風速南 4m/s
視程10km以上
天気現象弱いしゅう雨
全天を覆う雲 雲底高度 760m
KIAD 262106Z 2621/2724 15007KT P6SM OVC013
FM270000 14006KT P6SM SCT008 BKN015
FM270300 15006KT 6SM BR OVC008
FM271000 16007KT 5SM BR OVC004
FM271500 18009KT 4SM -SHRA BR OVC010
FM271700 18011G19KT 6SM SHRA VCTS OVC025CB
FM272200 17008KT 6SM -SHRA OVC025